sensor_id;sensor_type;location;lat;lon;timestamp;pressure;altitude;pressure_sealevel;temperature;humidity
36798;BME280;22748;8.426;99.512;2023-07-16T00:09:25;100538.63;;;29.86;68.34
36798;BME280;22748;8.426;99.512;2023-07-16T00:11:56;100548.25;;;29.76;68.43
36798;BME280;22748;8.426;99.512;2023-07-16T00:14:27;100565.84;;;29.71;68.23
36798;BME280;22748;8.426;99.512;2023-07-16T00:16:57;100566.06;;;29.63;68.84
36798;BME280;22748;8.426;99.512;2023-07-16T00:19:30;100569.00;;;29.62;68.56
36798;BME280;22748;8.426;99.512;2023-07-16T00:22:02;100578.91;;;29.61;69.19
36798;BME280;22748;8.426;99.512;2023-07-16T00:24:34;100585.34;;;29.60;68.80
36798;BME280;22748;8.426;99.512;2023-07-16T00:27:05;100581.59;;;29.61;68.64
36798;BME280;22748;8.426;99.512;2023-07-16T00:29:35;100595.91;;;29.62;68.71
36798;BME280;22748;8.426;99.512;2023-07-16T00:32:06;100590.53;;;29.62;69.04
36798;BME280;22748;8.426;99.512;2023-07-16T00:34:37;100603.38;;;29.60;69.06
36798;BME280;22748;8.426;99.512;2023-07-16T00:37:08;100609.56;;;29.60;69.63
36798;BME280;22748;8.426;99.512;2023-07-16T00:39:41;100604.81;;;29.62;69.12
36798;BME280;22748;8.426;99.512;2023-07-16T00:42:13;100603.75;;;29.63;69.51
36798;BME280;22748;8.426;99.512;2023-07-16T00:44:43;100610.19;;;29.62;69.27
36798;BME280;22748;8.426;99.512;2023-07-16T00:47:13;100614.50;;;29.63;69.86
36798;BME280;22748;8.426;99.512;2023-07-16T00:49:47;100611.44;;;29.60;69.51
36798;BME280;22748;8.426;99.512;2023-07-16T00:52:18;100620.34;;;29.60;69.49
36798;BME280;22748;8.426;99.512;2023-07-16T00:54:51;100622.19;;;29.66;69.76
36798;BME280;22748;8.426;99.512;2023-07-16T00:57:22;100624.03;;;29.72;69.81
36798;BME280;22748;8.426;99.512;2023-07-16T00:59:53;100628.59;;;29.65;70.13
36798;BME280;22748;8.426;99.512;2023-07-16T01:02:23;100620.50;;;29.65;70.05
36798;BME280;22748;8.426;99.512;2023-07-16T01:04:57;100620.09;;;29.68;69.97
36798;BME280;22748;8.426;99.512;2023-07-16T01:07:28;100614.91;;;29.73;69.98
36798;BME280;22748;8.426;99.512;2023-07-16T01:10:05;100628.38;;;29.73;70.12
36798;BME280;22748;8.426;99.512;2023-07-16T01:12:37;100635.19;;;29.76;70.04
36798;BME280;22748;8.426;99.512;2023-07-16T01:15:08;100635.59;;;29.80;70.03
36798;BME280;22748;8.426;99.512;2023-07-16T01:17:39;100635.97;;;29.83;70.24
36798;BME280;22748;8.426;99.512;2023-07-16T01:20:11;100638.88;;;29.88;70.42
36798;BME280;22748;8.426;99.512;2023-07-16T01:26:06;100652.13;;;29.90;70.14
36798;BME280;22748;8.426;99.512;2023-07-16T01:28:53;100656.25;;;29.92;69.98
36798;BME280;22748;8.426;99.512;2023-07-16T01:31:29;100670.69;;;29.98;70.23
36798;BME280;22748;8.426;99.512;2023-07-16T01:34:04;100661.59;;;29.99;69.28
36798;BME280;22748;8.426;99.512;2023-07-16T01:36:37;100668.59;;;30.00;69.79
36798;BME280;22748;8.426;99.512;2023-07-16T01:39:08;100664.28;;;29.99;70.55
36798;BME280;22748;8.426;99.512;2023-07-16T01:41:39;100666.13;;;30.05;69.79
36798;BME280;22748;8.426;99.512;2023-07-16T01:44:10;100669.19;;;30.09;69.88
36798;BME280;22748;8.426;99.512;2023-07-16T01:46:42;100676.03;;;30.05;69.72
36798;BME280;22748;8.426;99.512;2023-07-16T01:49:13;100671.06;;;30.08;69.83
36798;BME280;22748;8.426;99.512;2023-07-16T01:51:43;100665.66;;;30.08;69.40
36798;BME280;22748;8.426;99.512;2023-07-16T01:54:14;100668.56;;;30.07;69.38
36798;BME280;22748;8.426;99.512;2023-07-16T01:56:45;100666.97;;;29.99;69.25
36798;BME280;22748;8.426;99.512;2023-07-16T01:59:14;100668.19;;;30.03;68.62
36798;BME280;22748;8.426;99.512;2023-07-16T02:01:47;100659.22;;;30.09;67.96
36798;BME280;22748;8.426;99.512;2023-07-16T02:04:19;100673.09;;;30.13;67.90
36798;BME280;22748;8.426;99.512;2023-07-16T02:06:48;100672.44;;;30.18;67.40
36798;BME280;22748;8.426;99.512;2023-07-16T02:09:20;100664.75;;;30.21;67.16
36798;BME280;22748;8.426;99.512;2023-07-16T02:11:51;100667.44;;;30.28;67.00
36798;BME280;22748;8.426;99.512;2023-07-16T02:14:22;100668.66;;;30.32;66.98
36798;BME280;22748;8.426;99.512;2023-07-16T02:16:57;100665.31;;;30.37;66.81
36798;BME280;22748;8.426;99.512;2023-07-16T02:19:28;100668.41;;;30.40;67.04
36798;BME280;22748;8.426;99.512;2023-07-16T02:21:58;100674.97;;;30.44;66.90
36798;BME280;22748;8.426;99.512;2023-07-16T02:24:30;100673.50;;;30.48;66.67
36798;BME280;22748;8.426;99.512;2023-07-16T02:27:01;100668.72;;;30.50;67.28
36798;BME280;22748;8.426;99.512;2023-07-16T02:29:33;100677.00;;;30.55;66.76
36798;BME280;22748;8.426;99.512;2023-07-16T02:32:07;100679.25;;;30.59;66.70
36798;BME280;22748;8.426;99.512;2023-07-16T02:34:38;100677.75;;;30.63;66.56
36798;BME280;22748;8.426;99.512;2023-07-16T02:37:08;100681.88;;;30.65;66.21
36798;BME280;22748;8.426;99.512;2023-07-16T02:39:38;100683.31;;;30.68;65.71
36798;BME280;22748;8.426;99.512;2023-07-16T02:42:09;100693.06;;;30.69;66.12
36798;BME280;22748;8.426;99.512;2023-07-16T02:44:39;100678.75;;;30.68;66.30
36798;BME280;22748;8.426;99.512;2023-07-16T02:47:15;100678.97;;;30.67;65.69
36798;BME280;22748;8.426;99.512;2023-07-16T02:49:45;100662.81;;;30.67;65.28
36798;BME280;22748;8.426;99.512;2023-07-16T02:52:16;100671.50;;;30.69;65.53
36798;BME280;22748;8.426;99.512;2023-07-16T02:54:46;100658.00;;;30.69;65.18
36798;BME280;22748;8.426;99.512;2023-07-16T02:57:17;100655.31;;;30.69;65.79
36798;BME280;22748;8.426;99.512;2023-07-16T02:59:48;100659.66;;;30.70;65.43
36798;BME280;22748;8.426;99.512;2023-07-16T03:02:20;100657.56;;;30.72;65.33
36798;BME280;22748;8.426;99.512;2023-07-16T03:04:51;100658.16;;;30.74;65.30
36798;BME280;22748;8.426;99.512;2023-07-16T03:07:23;100661.47;;;30.76;65.17
36798;BME280;22748;8.426;99.512;2023-07-16T03:09:54;100656.69;;;30.78;65.71
36798;BME280;22748;8.426;99.512;2023-07-16T03:12:25;100663.13;;;30.77;66.00
36798;BME280;22748;8.426;99.512;2023-07-16T03:14:55;100660.44;;;30.77;65.82
36798;BME280;22748;8.426;99.512;2023-07-16T03:17:33;100658.56;;;30.78;66.04
36798;BME280;22748;8.426;99.512;2023-07-16T03:20:06;100653.16;;;30.78;65.74
36798;BME280;22748;8.426;99.512;2023-07-16T03:22:37;100641.13;;;30.80;65.98
36798;BME280;22748;8.426;99.512;2023-07-16T03:25:07;100641.72;;;30.82;65.91
36798;BME280;22748;8.426;99.512;2023-07-16T03:27:38;100633.63;;;30.82;66.10
36798;BME280;22748;8.426;99.512;2023-07-16T03:30:10;100639.63;;;30.84;66.27
36798;BME280;22748;8.426;99.512;2023-07-16T03:32:43;100632.34;;;30.85;66.16
36798;BME280;22748;8.426;99.512;2023-07-16T03:35:14;100634.88;;;30.86;66.06
36798;BME280;22748;8.426;99.512;2023-07-16T03:37:45;100615.19;;;30.86;66.63
36798;BME280;22748;8.426;99.512;2023-07-16T03:40:18;100617.00;;;30.85;66.85
36798;BME280;22748;8.426;99.512;2023-07-16T03:42:48;100605.22;;;30.86;66.22
36798;BME280;22748;8.426;99.512;2023-07-16T03:45:20;100604.16;;;30.87;66.38
36798;BME280;22748;8.426;99.512;2023-07-16T03:47:53;100597.13;;;30.86;66.21
36798;BME280;22748;8.426;99.512;2023-07-16T03:50:24;100599.56;;;30.88;65.72
36798;BME280;22748;8.426;99.512;2023-07-16T03:52:55;100609.53;;;30.87;65.03
36798;BME280;22748;8.426;99.512;2023-07-16T03:55:26;100603.31;;;30.87;64.36
36798;BME280;22748;8.426;99.512;2023-07-16T03:57:57;100598.75;;;30.87;64.08
36798;BME280;22748;8.426;99.512;2023-07-16T04:00:29;100604.53;;;30.91;64.15
36798;BME280;22748;8.426;99.512;2023-07-16T04:03:02;100600.78;;;30.92;64.52
36798;BME280;22748;8.426;99.512;2023-07-16T04:05:33;100590.84;;;30.92;64.36
36798;BME280;22748;8.426;99.512;2023-07-16T04:08:03;100590.00;;;30.92;64.11
36798;BME280;22748;8.426;99.512;2023-07-16T04:10:33;100576.28;;;30.93;63.57
36798;BME280;22748;8.426;99.512;2023-07-16T04:13:04;100571.97;;;30.92;63.63
36798;BME280;22748;8.426;99.512;2023-07-16T04:15:36;100564.69;;;30.93;63.12
36798;BME280;22748;8.426;99.512;2023-07-16T04:18:08;100555.31;;;30.95;63.07
36798;BME280;22748;8.426;99.512;2023-07-16T04:20:40;100558.63;;;30.98;62.87
36798;BME280;22748;8.426;99.512;2023-07-16T04:23:10;100564.59;;;31.00;62.96
36798;BME280;22748;8.426;99.512;2023-07-16T04:25:44;100564.16;;;31.03;62.99
36798;BME280;22748;8.426;99.512;2023-07-16T04:28:14;100565.00;;;31.03;62.95
36798;BME280;22748;8.426;99.512;2023-07-16T04:30:45;100559.81;;;31.02;62.69
36798;BME280;22748;8.426;99.512;2023-07-16T04:33:17;100553.53;;;31.08;62.89
36798;BME280;22748;8.426;99.512;2023-07-16T04:35:49;100545.44;;;31.08;62.68
36798;BME280;22748;8.426;99.512;2023-07-16T04:38:19;100539.56;;;31.11;62.74
36798;BME280;22748;8.426;99.512;2023-07-16T04:40:50;100543.47;;;31.15;62.82
36798;BME280;22748;8.426;99.512;2023-07-16T04:43:19;100541.97;;;31.19;62.82
36798;BME280;22748;8.426;99.512;2023-07-16T04:45:51;100539.88;;;31.21;62.55
36798;BME280;22748;8.426;99.512;2023-07-16T04:48:24;100534.81;;;31.25;62.59
36798;BME280;22748;8.426;99.512;2023-07-16T04:50:55;100541.06;;;31.25;62.61
36798;BME280;22748;8.426;99.512;2023-07-16T04:53:25;100536.88;;;31.29;62.89
36798;BME280;22748;8.426;99.512;2023-07-16T04:55:56;100531.22;;;31.31;62.72
36798;BME280;22748;8.426;99.512;2023-07-16T04:58:27;100523.72;;;31.33;62.19
36798;BME280;22748;8.426;99.512;2023-07-16T05:01:04;100519.75;;;31.35;62.64
36798;BME280;22748;8.426;99.512;2023-07-16T05:03:36;100525.97;;;31.36;62.89
36798;BME280;22748;8.426;99.512;2023-07-16T05:06:07;100525.13;;;31.35;62.60
36798;BME280;22748;8.426;99.512;2023-07-16T05:08:39;100515.19;;;31.36;62.43
36798;BME280;22748;8.426;99.512;2023-07-16T05:11:08;100506.41;;;31.41;62.13
36798;BME280;22748;8.426;99.512;2023-07-16T05:13:39;100498.31;;;31.41;62.13
36798;BME280;22748;8.426;99.512;2023-07-16T05:16:10;100492.69;;;31.42;61.89
36798;BME280;22748;8.426;99.512;2023-07-16T05:18:42;100491.44;;;31.45;62.16
36798;BME280;22748;8.426;99.512;2023-07-16T05:21:13;100491.34;;;31.51;61.50
36798;BME280;22748;8.426;99.512;2023-07-16T05:23:43;100471.75;;;31.56;61.95
36798;BME280;22748;8.426;99.512;2023-07-16T05:26:15;100469.75;;;31.63;61.98
36798;BME280;22748;8.426;99.512;2023-07-16T05:28:45;100471.75;;;31.68;61.85
36798;BME280;22748;8.426;99.512;2023-07-16T05:31:16;100466.34;;;31.68;61.96
36798;BME280;22748;8.426;99.512;2023-07-16T05:33:49;100452.63;;;31.69;61.52
36798;BME280;22748;8.426;99.512;2023-07-16T05:36:20;100449.47;;;31.72;61.86
36798;BME280;22748;8.426;99.512;2023-07-16T05:38:52;100441.72;;;31.76;61.49
36798;BME280;22748;8.426;99.512;2023-07-16T05:41:23;100434.00;;;31.80;61.74
36798;BME280;22748;8.426;99.512;2023-07-16T05:43:54;100427.31;;;31.82;60.93
36798;BME280;22748;8.426;99.512;2023-07-16T05:46:24;100428.94;;;31.83;61.52
36798;BME280;22748;8.426;99.512;2023-07-16T05:48:57;100419.78;;;31.84;61.18
36798;BME280;22748;8.426;99.512;2023-07-16T05:51:29;100417.09;;;31.84;61.32
36798;BME280;22748;8.426;99.512;2023-07-16T05:54:00;100415.78;;;31.87;61.30
36798;BME280;22748;8.426;99.512;2023-07-16T05:56:31;100408.72;;;31.86;60.90
36798;BME280;22748;8.426;99.512;2023-07-16T05:59:01;100405.00;;;31.87;61.04
36798;BME280;22748;8.426;99.512;2023-07-16T06:01:32;100393.97;;;31.88;60.97
36798;BME280;22748;8.426;99.512;2023-07-16T06:04:03;100400.53;;;31.92;61.17
36798;BME280;22748;8.426;99.512;2023-07-16T06:06:33;100385.97;;;31.93;60.92
36798;BME280;22748;8.426;99.512;2023-07-16T06:09:04;100380.94;;;31.97;60.71
36798;BME280;22748;8.426;99.512;2023-07-16T06:11:35;100380.94;;;31.97;60.59
36798;BME280;22748;8.426;99.512;2023-07-16T06:14:08;100387.16;;;31.97;60.75
36798;BME280;22748;8.426;99.512;2023-07-16T06:16:39;100387.53;;;32.01;60.66
36798;BME280;22748;8.426;99.512;2023-07-16T06:19:14;100390.78;;;32.03;60.67
36798;BME280;22748;8.426;99.512;2023-07-16T06:21:45;100433.19;;;32.03;60.79
36798;BME280;22748;8.426;99.512;2023-07-16T06:24:16;100482.97;;;31.95;61.40
36798;BME280;22748;8.426;99.512;2023-07-16T06:26:47;100476.34;;;31.79;61.90
36798;BME280;22748;8.426;99.512;2023-07-16T06:29:24;100473.31;;;31.75;62.31
36798;BME280;22748;8.426;99.512;2023-07-16T06:31:59;100442.31;;;31.66;62.65
36798;BME280;22748;8.426;99.512;2023-07-16T06:34:32;100403.69;;;31.54;62.29
36798;BME280;22748;8.426;99.512;2023-07-16T06:37:03;100389.91;;;31.44;62.52
36798;BME280;22748;8.426;99.512;2023-07-16T06:39:37;100387.06;;;31.39;63.30
36798;BME280;22748;8.426;99.512;2023-07-16T06:42:10;100384.13;;;31.28;63.57
36798;BME280;22748;8.426;99.512;2023-07-16T06:44:41;100382.22;;;31.29;63.85
36798;BME280;22748;8.426;99.512;2023-07-16T06:47:13;100382.00;;;31.30;64.19
36798;BME280;22748;8.426;99.512;2023-07-16T06:49:45;100375.78;;;31.30;64.51
36798;BME280;22748;8.426;99.512;2023-07-16T06:52:32;100376.59;;;31.30;63.99
36798;BME280;22748;8.426;99.512;2023-07-16T06:55:05;100365.34;;;31.33;64.56
36798;BME280;22748;8.426;99.512;2023-07-16T06:57:36;100362.19;;;31.36;64.52
36798;BME280;22748;8.426;99.512;2023-07-16T07:00:08;100356.22;;;31.34;64.10
36798;BME280;22748;8.426;99.512;2023-07-16T07:02:40;100364.09;;;31.36;64.15
36798;BME280;22748;8.426;99.512;2023-07-16T07:05:13;100359.03;;;31.40;64.46
36798;BME280;22748;8.426;99.512;2023-07-16T07:07:44;100366.28;;;31.27;64.68
36798;BME280;22748;8.426;99.512;2023-07-16T07:10:13;100361.81;;;31.33;64.43
36798;BME280;22748;8.426;99.512;2023-07-16T07:12:44;100360.31;;;31.37;64.92
36798;BME280;22748;8.426;99.512;2023-07-16T07:15:13;100354.91;;;31.37;65.28
36798;BME280;22748;8.426;99.512;2023-07-16T07:17:44;100354.22;;;31.42;65.19
36798;BME280;22748;8.426;99.512;2023-07-16T07:20:18;100349.81;;;31.47;65.25
36798;BME280;22748;8.426;99.512;2023-07-16T07:22:49;100347.91;;;31.48;65.35
36798;BME280;22748;8.426;99.512;2023-07-16T07:25:19;100351.31;;;31.55;65.55
36798;BME280;22748;8.426;99.512;2023-07-16T07:27:50;100341.69;;;31.59;66.04
36798;BME280;22748;8.426;99.512;2023-07-16T07:30:25;100340.19;;;31.63;66.34
36798;BME280;22748;8.426;99.512;2023-07-16T07:32:56;100337.03;;;31.66;65.57
36798;BME280;22748;8.426;99.512;2023-07-16T07:35:32;100327.38;;;31.70;65.64
36798;BME280;22748;8.426;99.512;2023-07-16T07:38:03;100319.63;;;31.74;65.93
36798;BME280;22748;8.426;99.512;2023-07-16T07:40:34;100322.69;;;31.77;66.30
36798;BME280;22748;8.426;99.512;2023-07-16T07:43:05;100305.56;;;31.84;66.08
36798;BME280;22748;8.426;99.512;2023-07-16T07:45:35;100295.91;;;31.88;65.69
36798;BME280;22748;8.426;99.512;2023-07-16T07:48:06;100288.16;;;31.91;65.81
36798;BME280;22748;8.426;99.512;2023-07-16T07:50:39;100275.00;;;31.95;65.01
36798;BME280;22748;8.426;99.512;2023-07-16T07:53:09;100275.34;;;31.98;65.32
36798;BME280;22748;8.426;99.512;2023-07-16T07:55:42;100274.91;;;32.02;65.62
36798;BME280;22748;8.426;99.512;2023-07-16T07:58:12;100272.28;;;32.07;65.25
36798;BME280;22748;8.426;99.512;2023-07-16T08:00:43;100272.88;;;32.09;64.68
36798;BME280;22748;8.426;99.512;2023-07-16T08:03:14;100273.69;;;32.09;64.66
36798;BME280;22748;8.426;99.512;2023-07-16T08:05:49;100273.22;;;32.12;63.71
36798;BME280;22748;8.426;99.512;2023-07-16T08:08:20;100276.75;;;32.13;62.64
36798;BME280;22748;8.426;99.512;2023-07-16T08:10:52;100279.22;;;32.14;63.10
36798;BME280;22748;8.426;99.512;2023-07-16T08:13:24;100294.56;;;32.14;62.90
36798;BME280;22748;8.426;99.512;2023-07-16T08:15:55;100301.41;;;32.16;62.40
36798;BME280;22748;8.426;99.512;2023-07-16T08:18:29;100309.50;;;32.16;62.33
36798;BME280;22748;8.426;99.512;2023-07-16T08:21:02;100297.41;;;32.19;61.50
36798;BME280;22748;8.426;99.512;2023-07-16T08:23:33;100292.00;;;32.19;61.38
36798;BME280;22748;8.426;99.512;2023-07-16T08:26:05;100291.19;;;32.18;61.18
36798;BME280;22748;8.426;99.512;2023-07-16T08:28:35;100281.19;;;32.19;61.58
36798;BME280;22748;8.426;99.512;2023-07-16T08:31:05;100299.53;;;32.17;61.68
36798;BME280;22748;8.426;99.512;2023-07-16T08:33:37;100307.84;;;32.15;62.60
36798;BME280;22748;8.426;99.512;2023-07-16T08:36:10;100314.13;;;32.04;63.43
36798;BME280;22748;8.426;99.512;2023-07-16T08:38:41;100310.69;;;31.97;64.00
36798;BME280;22748;8.426;99.512;2023-07-16T08:41:12;100327.84;;;31.91;64.22
36798;BME280;22748;8.426;99.512;2023-07-16T08:43:42;100326.69;;;31.87;64.90
36798;BME280;22748;8.426;99.512;2023-07-16T08:46:14;100304.13;;;31.81;65.26
36798;BME280;22748;8.426;99.512;2023-07-16T08:48:45;100310.25;;;31.76;65.28
36798;BME280;22748;8.426;99.512;2023-07-16T08:51:17;100316.56;;;31.70;65.43
36798;BME280;22748;8.426;99.512;2023-07-16T08:53:50;100311.19;;;31.70;65.28
36798;BME280;22748;8.426;99.512;2023-07-16T08:56:20;100295.94;;;31.64;65.70
36798;BME280;22748;8.426;99.512;2023-07-16T08:58:51;100293.13;;;31.59;65.65
36798;BME280;22748;8.426;99.512;2023-07-16T09:01:25;100283.97;;;31.60;65.39
36798;BME280;22748;8.426;99.512;2023-07-16T09:03:55;100283.13;;;31.60;65.46
36798;BME280;22748;8.426;99.512;2023-07-16T09:06:30;100288.88;;;31.63;65.43
36798;BME280;22748;8.426;99.512;2023-07-16T09:09:00;100300.16;;;31.60;65.73
36798;BME280;22748;8.426;99.512;2023-07-16T09:11:30;100306.03;;;31.57;65.73
36798;BME280;22748;8.426;99.512;2023-07-16T09:14:03;100312.94;;;31.53;65.87
36798;BME280;22748;8.426;99.512;2023-07-16T09:16:36;100308.63;;;31.52;66.13
36798;BME280;22748;8.426;99.512;2023-07-16T09:19:11;100300.88;;;31.44;66.69
36798;BME280;22748;8.426;99.512;2023-07-16T09:21:47;100297.53;;;31.42;66.56
36798;BME280;22748;8.426;99.512;2023-07-16T09:24:20;100307.16;;;31.37;66.87
36798;BME280;22748;8.426;99.512;2023-07-16T09:26:51;100310.94;;;31.36;66.71
36798;BME280;22748;8.426;99.512;2023-07-16T09:29:24;100305.53;;;31.36;67.43
36798;BME280;22748;8.426;99.512;2023-07-16T09:31:57;100315.03;;;31.27;67.62
36798;BME280;22748;8.426;99.512;2023-07-16T09:34:30;100315.63;;;31.29;68.05
36798;BME280;22748;8.426;99.512;2023-07-16T09:37:04;100309.63;;;31.27;67.73
36798;BME280;22748;8.426;99.512;2023-07-16T09:39:36;100313.38;;;31.26;67.64
36798;BME280;22748;8.426;99.512;2023-07-16T09:42:08;100317.91;;;31.14;67.63
36798;BME280;22748;8.426;99.512;2023-07-16T09:44:38;100313.91;;;31.05;67.78
36798;BME280;22748;8.426;99.512;2023-07-16T09:47:10;100311.00;;;31.06;67.90
36798;BME280;22748;8.426;99.512;2023-07-16T09:49:42;100313.59;;;31.13;67.83
36798;BME280;22748;8.426;99.512;2023-07-16T09:52:14;100309.81;;;31.14;67.75
36798;BME280;22748;8.426;99.512;2023-07-16T09:54:46;100308.84;;;30.96;68.48
36798;BME280;22748;8.426;99.512;2023-07-16T09:57:16;100310.50;;;30.98;68.64
36798;BME280;22748;8.426;99.512;2023-07-16T09:59:46;100312.50;;;30.90;68.34
36798;BME280;22748;8.426;99.512;2023-07-16T10:02:19;100309.44;;;30.99;68.39
36798;BME280;22748;8.426;99.512;2023-07-16T10:04:56;100309.03;;;30.83;68.63
36798;BME280;22748;8.426;99.512;2023-07-16T10:07:30;100304.69;;;30.82;69.08
36798;BME280;22748;8.426;99.512;2023-07-16T10:10:08;100301.34;;;30.87;69.11
36798;BME280;22748;8.426;99.512;2023-07-16T10:12:42;100306.81;;;30.80;68.96
36798;BME280;22748;8.426;99.512;2023-07-16T10:15:13;100310.78;;;30.78;69.05
36798;BME280;22748;8.426;99.512;2023-07-16T10:17:50;100311.31;;;30.86;69.09
36798;BME280;22748;8.426;99.512;2023-07-16T10:20:30;100320.22;;;30.99;68.58
36798;BME280;22748;8.426;99.512;2023-07-16T10:23:14;100323.66;;;31.06;68.44
36798;BME280;22748;8.426;99.512;2023-07-16T10:26:00;100320.97;;;31.06;68.60
36798;BME280;22748;8.426;99.512;2023-07-16T10:28:34;100328.38;;;31.10;68.20
36798;BME280;22748;8.426;99.512;2023-07-16T10:31:05;100335.66;;;31.10;68.08
36798;BME280;22748;8.426;99.512;2023-07-16T10:33:39;100327.19;;;31.06;68.03
36798;BME280;22748;8.426;99.512;2023-07-16T10:36:10;100342.19;;;31.02;68.47
36798;BME280;22748;8.426;99.512;2023-07-16T10:38:50;100347.47;;;31.09;68.74
36798;BME280;22748;8.426;99.512;2023-07-16T10:41:22;100348.66;;;31.13;68.67
36798;BME280;22748;8.426;99.512;2023-07-16T10:43:53;100349.94;;;31.10;68.71
36798;BME280;22748;8.426;99.512;2023-07-16T10:46:25;100349.47;;;31.13;68.50
36798;BME280;22748;8.426;99.512;2023-07-16T10:48:58;100360.38;;;31.07;68.67
36798;BME280;22748;8.426;99.512;2023-07-16T10:51:29;100356.63;;;31.08;68.75
36798;BME280;22748;8.426;99.512;2023-07-16T10:54:02;100358.72;;;31.06;68.64
36798;BME280;22748;8.426;99.512;2023-07-16T10:56:36;100356.16;;;31.11;68.64
36798;BME280;22748;8.426;99.512;2023-07-16T10:59:08;100354.88;;;31.13;68.88
36798;BME280;22748;8.426;99.512;2023-07-16T11:01:40;100360.63;;;31.17;68.63
36798;BME280;22748;8.426;99.512;2023-07-16T11:04:14;100364.97;;;31.18;68.73
36798;BME280;22748;8.426;99.512;2023-07-16T11:06:45;100365.56;;;31.20;68.39
36798;BME280;22748;8.426;99.512;2023-07-16T11:09:18;100366.41;;;31.21;68.52
36798;BME280;22748;8.426;99.512;2023-07-16T11:11:48;100364.63;;;31.14;68.92
36798;BME280;22748;8.426;99.512;2023-07-16T11:14:20;100365.22;;;31.16;69.07
36798;BME280;22748;8.426;99.512;2023-07-16T11:16:49;100370.25;;;31.13;69.13
36798;BME280;22748;8.426;99.512;2023-07-16T11:19:21;100372.94;;;31.13;68.81
36798;BME280;22748;8.426;99.512;2023-07-16T11:21:53;100372.94;;;31.13;68.94
36798;BME280;22748;8.426;99.512;2023-07-16T11:24:26;100371.88;;;31.14;69.11
36798;BME280;22748;8.426;99.512;2023-07-16T11:26:57;100376.00;;;31.16;68.76
36798;BME280;22748;8.426;99.512;2023-07-16T11:29:35;100382.22;;;31.17;69.02
36798;BME280;22748;8.426;99.512;2023-07-16T11:32:07;100382.22;;;31.17;69.27
36798;BME280;22748;8.426;99.512;2023-07-16T11:34:50;100385.94;;;31.16;69.26
36798;BME280;22748;8.426;99.512;2023-07-16T11:37:22;100394.63;;;31.18;69.19
36798;BME280;22748;8.426;99.512;2023-07-16T11:40:01;100400.28;;;31.16;69.16
36798;BME280;22748;8.426;99.512;2023-07-16T11:42:34;100405.09;;;31.14;69.47
36798;BME280;22748;8.426;99.512;2023-07-16T11:45:14;100407.28;;;31.06;69.77
36798;BME280;22748;8.426;99.512;2023-07-16T11:47:46;100417.59;;;31.09;69.09
36798;BME280;22748;8.426;99.512;2023-07-16T11:50:17;100419.47;;;31.08;69.04
36798;BME280;22748;8.426;99.512;2023-07-16T11:52:52;100427.19;;;31.05;69.38
36798;BME280;22748;8.426;99.512;2023-07-16T11:55:25;100435.44;;;31.10;69.19
36798;BME280;22748;8.426;99.512;2023-07-16T11:57:55;100433.19;;;31.07;69.32
36798;BME280;22748;8.426;99.512;2023-07-16T12:00:25;100437.38;;;31.03;69.26
36798;BME280;22748;8.426;99.512;2023-07-16T12:02:57;100441.75;;;31.04;69.39
36798;BME280;22748;8.426;99.512;2023-07-16T12:05:27;100442.19;;;31.01;69.42
36798;BME280;22748;8.426;99.512;2023-07-16T12:07:58;100459.22;;;31.01;69.81
36798;BME280;22748;8.426;99.512;2023-07-16T12:10:31;100459.56;;;31.05;69.51
36798;BME280;22748;8.426;99.512;2023-07-16T12:13:01;100460.03;;;31.02;69.61
36798;BME280;22748;8.426;99.512;2023-07-16T12:15:32;100471.84;;;31.01;69.89
36798;BME280;22748;8.426;99.512;2023-07-16T12:18:02;100472.44;;;31.03;70.00
36798;BME280;22748;8.426;99.512;2023-07-16T12:20:34;100483.25;;;31.03;69.71
36798;BME280;22748;8.426;99.512;2023-07-16T12:23:06;100475.16;;;31.03;69.61
36798;BME280;22748;8.426;99.512;2023-07-16T12:25:39;100488.19;;;31.06;69.72
36798;BME280;22748;8.426;99.512;2023-07-16T12:28:12;100485.50;;;31.06;69.50
36798;BME280;22748;8.426;99.512;2023-07-16T12:30:43;100479.84;;;31.07;69.54
36798;BME280;22748;8.426;99.512;2023-07-16T12:33:13;100488.78;;;31.08;69.49
36798;BME280;22748;8.426;99.512;2023-07-16T12:35:44;100480.22;;;31.11;69.58
36798;BME280;22748;8.426;99.512;2023-07-16T12:38:14;100482.72;;;31.12;69.59
36798;BME280;22748;8.426;99.512;2023-07-16T12:40:47;100486.09;;;31.08;69.40
36798;BME280;22748;8.426;99.512;2023-07-16T12:43:19;100493.59;;;31.06;69.44
36798;BME280;22748;8.426;99.512;2023-07-16T12:45:49;100494.63;;;31.05;69.55
36798;BME280;22748;8.426;99.512;2023-07-16T12:48:20;100498.13;;;31.05;69.44
36798;BME280;22748;8.426;99.512;2023-07-16T12:50:52;100501.09;;;31.04;69.60
36798;BME280;22748;8.426;99.512;2023-07-16T12:53:23;100504.81;;;31.03;69.53
36798;BME280;22748;8.426;99.512;2023-07-16T12:55:55;100505.19;;;31.06;69.26
36798;BME280;22748;8.426;99.512;2023-07-16T12:58:26;100504.38;;;31.06;69.58
36798;BME280;22748;8.426;99.512;2023-07-16T13:00:55;100506.63;;;30.90;69.75
36798;BME280;22748;8.426;99.512;2023-07-16T13:03:29;100507.25;;;30.92;69.75
36798;BME280;22748;8.426;99.512;2023-07-16T13:05:59;100508.41;;;30.96;69.63
36798;BME280;22748;8.426;99.512;2023-07-16T13:08:31;100507.38;;;30.98;69.79
36798;BME280;22748;8.426;99.512;2023-07-16T13:11:05;100511.50;;;31.00;69.67
36798;BME280;22748;8.426;99.512;2023-07-16T13:13:36;100509.00;;;30.99;69.58
36798;BME280;22748;8.426;99.512;2023-07-16T13:16:07;100515.69;;;30.96;69.51
36798;BME280;22748;8.426;99.512;2023-07-16T13:18:38;100512.78;;;30.98;69.14
36798;BME280;22748;8.426;99.512;2023-07-16T13:21:09;100501.97;;;30.98;69.44
36798;BME280;22748;8.426;99.512;2023-07-16T13:23:42;100507.97;;;31.00;69.06
36798;BME280;22748;8.426;99.512;2023-07-16T13:26:17;100511.50;;;31.00;69.21